createdAt,value
2019-04-26T00:02:25.098Z,1008.4
2019-04-26T00:07:30.544Z,1008.5
2019-04-26T00:12:35.525Z,1008.9
2019-04-26T00:17:40.390Z,1009.3
2019-04-26T00:22:45.617Z,1009.3
2019-04-26T00:27:50.220Z,1009.3
2019-04-26T00:32:54.823Z,1009.6
2019-04-26T00:37:59.709Z,1009.5
2019-04-26T00:43:04.874Z,1009.3
2019-04-26T00:48:09.764Z,1009.3
2019-04-26T00:53:20.167Z,1009.3
2019-04-26T00:58:26.337Z,1009.2
2019-04-26T01:03:31.216Z,1009.2
2019-04-26T01:08:36.665Z,1009.2
2019-04-26T01:13:41.735Z,1009.2
2019-04-26T01:18:46.607Z,1009
2019-04-26T01:23:51.215Z,1009
2019-04-26T01:28:55.535Z,1008.8
2019-04-26T01:34:01.176Z,1008.6
2019-04-26T01:39:06.051Z,1008.8
2019-04-26T01:44:11.211Z,1008.7
2019-04-26T01:49:15.807Z,1008.4
2019-04-26T01:54:21.514Z,1008.6
2019-04-26T01:59:30.009Z,1008.6
2019-04-26T02:04:35.166Z,1008.4
2019-04-26T02:09:39.482Z,1008.5
2019-04-26T02:14:44.352Z,1008.6
2019-04-26T02:19:49.226Z,1008.5
2019-04-26T02:24:54.601Z,1008.3
2019-04-26T02:30:00.322Z,1008.4
2019-04-26T02:35:05.739Z,1008.3
2019-04-26T02:40:11.157Z,1008.4
2019-04-26T02:45:16.312Z,1008.4
2019-04-26T02:50:21.459Z,1008.4
2019-04-26T02:55:30.887Z,1008.3
2019-04-26T03:00:40.742Z,1008.3
2019-04-26T03:05:45.889Z,1008.4
2019-04-26T03:10:50.205Z,1008.5
2019-04-26T03:15:55.068Z,1008.5
2019-04-26T03:21:00.211Z,1008.4
2019-04-26T03:26:05.640Z,1008.3
2019-04-26T03:31:10.793Z,1008.3
2019-04-26T03:36:15.660Z,1008.2
2019-04-26T03:41:20.811Z,1008.2
2019-04-26T03:46:26.235Z,1008.3
2019-04-26T03:51:31.679Z,1008.4
2019-04-26T03:56:46.001Z,1008.6
2019-04-26T04:01:51.156Z,1008.6
2019-04-26T04:07:07.442Z,1008.6
2019-04-26T04:12:15.249Z,1008.6
2019-04-26T04:17:20.350Z,1008.5
2019-04-26T04:22:24.947Z,1008.6
2019-04-26T04:27:30.360Z,1008.5
2019-04-26T04:32:35.780Z,1008.6
2019-04-26T04:38:11.968Z,1008.5
2019-04-26T04:43:16.879Z,1008.7
2019-04-26T04:48:22.263Z,1008.6
2019-04-26T04:53:27.905Z,1008.6
2019-04-26T04:58:33.328Z,1008.5
2019-04-26T05:03:38.188Z,1008.8
2019-04-26T05:08:45.439Z,1008.9
2019-04-26T05:13:52.537Z,1008.7
2019-04-26T05:18:57.470Z,1008.5
2019-04-26T05:24:02.064Z,1008.8
2019-04-26T05:29:06.648Z,1008.6
2019-04-26T05:34:11.516Z,1008.7
2019-04-26T05:39:16.387Z,1008.8
2019-04-26T05:44:20.991Z,1008.7
2019-04-26T05:49:26.413Z,1009
2019-04-26T05:54:31.274Z,1008.9
2019-04-26T05:59:36.905Z,1008.8
2019-04-26T06:04:42.059Z,1009
2019-04-26T06:09:47.200Z,1009.2
2019-04-26T06:14:57.235Z,1009.1
2019-04-26T06:20:03.694Z,1008.9
2019-04-26T06:25:09.135Z,1008.8
2019-04-26T06:30:14.257Z,1008.7
2019-04-26T06:35:21.663Z,1008.9
2019-04-26T06:40:26.533Z,1008.9
2019-04-26T06:45:31.122Z,1009
2019-04-26T06:50:36.472Z,1009.3
2019-04-26T06:55:41.613Z,1009.4
2019-04-26T07:00:46.202Z,1009.3
2019-04-26T07:05:51.070Z,1009.5
2019-04-26T07:10:56.558Z,1009.5
2019-04-26T07:16:23.948Z,1009.7
2019-04-26T07:21:28.269Z,1009.5
2019-04-26T07:26:32.862Z,1009.6
2019-04-26T07:31:52.932Z,1009.7
2019-04-26T07:36:57.537Z,1009.7
2019-04-26T07:42:05.802Z,1009.7
2019-04-26T07:47:15.611Z,1009.9
2019-04-26T07:52:20.418Z,1009.9
2019-04-26T07:57:25.027Z,1010
2019-04-26T08:02:44.476Z,1010
2019-04-26T08:07:49.372Z,1010
2019-04-26T08:12:55.458Z,1010
2019-04-26T08:18:00.204Z,1010.1
2019-04-26T08:23:43.742Z,1010.3
2019-04-26T08:28:49.053Z,1010.2
2019-04-26T08:33:53.790Z,1010.1
2019-04-26T08:38:58.574Z,1010.1
2019-04-26T08:44:11.758Z,1010.1
2019-04-26T08:49:17.532Z,1010.2
2019-04-26T08:54:22.255Z,1010.2
2019-04-26T08:59:27.154Z,1010.2
2019-04-26T09:04:31.777Z,1010.4
2019-04-26T09:09:36.125Z,1010.5
2019-04-26T09:14:40.968Z,1010.7
2019-04-26T09:19:46.187Z,1010.7
2019-04-26T09:24:55.025Z,1010.6
2019-04-26T09:30:08.011Z,1010.8
2019-04-26T09:35:17.970Z,1010.9
2019-04-26T09:40:25.672Z,1010.9
2019-04-26T09:45:30.293Z,1010.7
2019-04-26T09:50:34.387Z,1010.8
2019-04-26T09:55:39.552Z,1010.9
2019-04-26T10:00:51.591Z,1010.9
2019-04-26T10:05:59.006Z,1011
2019-04-26T10:11:11.135Z,1011
2019-04-26T10:16:16.602Z,1011.1
2019-04-26T10:21:20.951Z,1011.2
2019-04-26T10:26:32.434Z,1011.2
2019-04-26T10:31:37.366Z,1011.4
2019-04-26T10:36:42.561Z,1011.5
2019-04-26T10:41:47.753Z,1011.5
2019-04-26T10:47:06.995Z,1011.6
2019-04-26T10:52:18.354Z,1011.4
2019-04-26T10:57:37.642Z,1011.5
2019-04-26T11:02:42.808Z,1011.6
2019-04-26T11:08:02.358Z,1011.6
2019-04-26T11:13:07.554Z,1011.6
2019-04-26T11:18:13.017Z,1011.7
2019-04-26T11:23:17.922Z,1011.7
2019-04-26T11:28:24.392Z,1011.8
2019-04-26T11:33:29.091Z,1011.8
2019-04-26T11:38:35.175Z,1011.8
2019-04-26T11:43:40.352Z,1011.9
2019-04-26T11:48:45.546Z,1011.8
2019-04-26T11:53:50.457Z,1011.7
2019-04-26T11:58:59.989Z,1011.7
2019-04-26T12:04:07.783Z,1011.7
2019-04-26T12:09:12.415Z,1011.7
2019-04-26T12:14:23.539Z,1011.6
2019-04-26T12:19:28.721Z,1011.5
2019-04-26T12:24:36.775Z,1011.5
2019-04-26T12:29:49.784Z,1011.7
2019-04-26T12:34:54.008Z,1011.8
2019-04-26T12:39:58.916Z,1011.9
2019-04-26T12:45:03.540Z,1012
2019-04-26T12:50:08.775Z,1012
2019-04-26T12:55:21.788Z,1012.1
2019-04-26T13:00:26.694Z,1012.2
2019-04-26T13:05:32.160Z,1012.2
2019-04-26T13:10:38.916Z,1012.4
2019-04-26T13:15:51.780Z,1012.4
2019-04-26T13:21:04.953Z,1012.3
2019-04-26T13:26:09.582Z,1012.3
2019-04-26T13:31:14.774Z,1012.2
2019-04-26T13:36:19.400Z,1012.3
2019-04-26T13:41:24.022Z,1012.4
2019-04-26T13:46:29.487Z,1012.4
2019-04-26T13:51:34.122Z,1012.5
2019-04-26T13:56:40.072Z,1012.5
2019-04-26T14:01:44.708Z,1012.6
2019-04-26T14:06:49.353Z,1012.5
2019-04-26T14:11:54.296Z,1012.6
2019-04-26T14:17:00.295Z,1012.7
2019-04-26T14:22:09.660Z,1012.8
2019-04-26T14:27:18.313Z,1012.8
2019-04-26T14:32:26.308Z,1012.9
2019-04-26T14:37:31.665Z,1013
2019-04-26T14:42:50.990Z,1012.9
2019-04-26T14:47:56.170Z,1012.8
2019-04-26T14:53:05.902Z,1012.8
2019-04-26T14:58:12.242Z,1012.8
2019-04-26T15:03:25.293Z,1012.8
2019-04-26T15:08:34.068Z,1012.8
2019-04-26T15:13:45.898Z,1012.8
2019-04-26T15:18:50.549Z,1012.8
2019-04-26T15:24:05.046Z,1012.8
2019-04-26T15:29:09.622Z,1013
2019-04-26T15:34:14.915Z,1013.1
2019-04-26T15:39:25.434Z,1013.1
2019-04-26T15:44:33.150Z,1013.2
2019-04-26T15:49:39.608Z,1013.5
2019-04-26T15:54:44.890Z,1013.5
2019-04-26T15:59:49.815Z,1013.6
2019-04-26T16:04:57.540Z,1013.7
2019-04-26T16:10:04.159Z,1013.6
2019-04-26T16:15:17.010Z,1013.6
2019-04-26T16:20:22.987Z,1013.7
2019-04-26T16:25:27.044Z,1013.6
2019-04-26T16:30:39.751Z,1013.7
2019-04-26T16:35:44.973Z,1013.6
2019-04-26T16:40:57.224Z,1013.7
2019-04-26T16:46:03.575Z,1013.8
2019-04-26T16:54:21.640Z,1014
2019-04-26T16:59:28.916Z,1014
2019-04-26T17:04:38.249Z,1014
2019-04-26T17:10:04.734Z,1014
2019-04-26T17:15:09.246Z,1013.9
2019-04-26T17:20:14.069Z,1014
2019-04-26T17:25:28.509Z,1014.1
2019-04-26T17:30:46.210Z,1014.1
2019-04-26T17:35:50.825Z,1014
2019-04-26T17:40:56.253Z,1013.9
2019-04-26T17:46:02.931Z,1013.9
2019-04-26T17:51:24.406Z,1013.9
2019-04-26T17:56:54.035Z,1014
2019-04-26T18:02:03.457Z,1014.2
2019-04-26T18:08:36.692Z,1014.1
2019-04-26T18:13:53.085Z,1014.3
2019-04-26T18:18:59.079Z,1014.2
2019-04-26T18:24:05.534Z,1014
2019-04-26T18:29:10.396Z,1014
2019-04-26T18:34:16.104Z,1014.1
2019-04-26T18:39:33.059Z,1014.1
2019-04-26T18:44:50.414Z,1014.2
2019-04-26T18:50:01.319Z,1014.3
2019-04-26T18:55:07.902Z,1014.1
2019-04-26T19:00:14.858Z,1014.1
2019-04-26T19:05:33.655Z,1014.2
2019-04-26T19:10:38.219Z,1014.4
2019-04-26T19:15:44.283Z,1014.4
2019-04-26T19:20:49.163Z,1014.3
2019-04-26T19:25:54.667Z,1014.3
2019-04-26T19:30:59.541Z,1014.3
2019-04-26T19:36:05.245Z,1014.5
2019-04-26T19:41:09.836Z,1014.6
2019-04-26T19:46:26.522Z,1014.7
2019-04-26T19:51:31.939Z,1014.8
2019-04-26T19:56:37.095Z,1014.8
2019-04-26T20:01:44.677Z,1014.7
2019-04-26T20:06:56.731Z,1014.7
2019-04-26T20:12:04.742Z,1014.7
2019-04-26T20:17:23.410Z,1014.5
2019-04-26T20:22:33.851Z,1014.4
2019-04-26T20:27:39.099Z,1014.4
2019-04-26T20:32:47.398Z,1014.4
2019-04-26T20:38:05.380Z,1014.6
2019-04-26T20:44:10.238Z,1014.5
2019-04-26T20:49:15.775Z,1014.5
2019-04-26T20:54:22.436Z,1014.5
2019-04-26T20:59:27.282Z,1014.6
2019-04-26T21:04:46.753Z,1014.7
2019-04-26T21:09:51.917Z,1014.7
2019-04-26T21:14:57.372Z,1014.8
2019-04-26T21:20:03.959Z,1014.8
2019-04-26T21:25:11.668Z,1014.8
2019-04-26T21:30:17.001Z,1014.9
2019-04-26T21:35:30.232Z,1015
2019-04-26T21:40:36.282Z,1015
2019-04-26T21:45:41.706Z,1014.9
2019-04-26T21:50:47.386Z,1014.9
2019-04-26T21:55:54.554Z,1014.8
2019-04-26T22:00:59.689Z,1014.7
2019-04-26T22:06:06.350Z,1014.6
2019-04-26T22:11:23.085Z,1014.6
2019-04-26T22:16:40.693Z,1014.4
2019-04-26T22:21:46.727Z,1014.3
2019-04-26T22:26:53.403Z,1014.4
2019-04-26T22:31:58.575Z,1014.5
2019-04-26T22:37:31.023Z,1014.6
2019-04-26T22:42:46.195Z,1014.8
2019-04-26T22:47:51.050Z,1014.8
2019-04-26T22:52:57.639Z,1014.9
2019-04-26T22:58:25.356Z,1015
2019-04-26T23:03:36.501Z,1015
2019-04-26T23:08:41.342Z,1014.7
2019-04-26T23:13:47.798Z,1014.7
2019-04-26T23:18:54.584Z,1014.6
2019-04-26T23:24:00.003Z,1014.5
2019-04-26T23:34:58.108Z,1014.4
2019-04-26T23:40:05.737Z,1014.3
2019-04-26T23:45:16.254Z,1014.2
2019-04-26T23:50:21.681Z,1014.1
2019-04-26T23:55:42.424Z,1014.1
